sensor_id;sensor_type;location;lat;lon;timestamp;P1;durP1;ratioP1;P2;durP2;ratioP2
77217;SDS011;66214;51.302;17.068;2024-02-14T00:01:39;47.70;;;23.20;;
77217;SDS011;66214;51.302;17.068;2024-02-14T00:04:07;39.80;;;20.10;;
77217;SDS011;66214;51.302;17.068;2024-02-14T00:06:36;35.00;;;18.40;;
77217;SDS011;66214;51.302;17.068;2024-02-14T00:09:05;41.50;;;19.60;;
77217;SDS011;66214;51.302;17.068;2024-02-14T00:11:34;37.40;;;18.50;;
77217;SDS011;66214;51.302;17.068;2024-02-14T00:14:03;36.80;;;19.40;;
77217;SDS011;66214;51.302;17.068;2024-02-14T00:16:35;41.20;;;20.70;;
77217;SDS011;66214;51.302;17.068;2024-02-14T00:19:05;51.90;;;23.90;;
77217;SDS011;66214;51.302;17.068;2024-02-14T00:21:34;51.60;;;24.00;;
77217;SDS011;66214;51.302;17.068;2024-02-14T00:24:05;49.30;;;22.80;;
77217;SDS011;66214;51.302;17.068;2024-02-14T00:27:04;44.20;;;20.80;;
77217;SDS011;66214;51.302;17.068;2024-02-14T00:29:33;38.40;;;17.80;;
77217;SDS011;66214;51.302;17.068;2024-02-14T00:32:02;39.40;;;18.60;;
77217;SDS011;66214;51.302;17.068;2024-02-14T00:34:31;36.00;;;17.70;;
77217;SDS011;66214;51.302;17.068;2024-02-14T00:37:00;36.30;;;17.60;;
77217;SDS011;66214;51.302;17.068;2024-02-14T00:39:29;36.00;;;18.30;;
77217;SDS011;66214;51.302;17.068;2024-02-14T00:41:57;38.90;;;19.50;;
77217;SDS011;66214;51.302;17.068;2024-02-14T00:44:26;46.30;;;21.10;;
77217;SDS011;66214;51.302;17.068;2024-02-14T00:46:58;58.10;;;25.60;;
77217;SDS011;66214;51.302;17.068;2024-02-14T00:49:34;57.70;;;27.20;;
77217;SDS011;66214;51.302;17.068;2024-02-14T00:52:04;56.90;;;26.90;;
77217;SDS011;66214;51.302;17.068;2024-02-14T00:54:32;55.20;;;25.50;;
77217;SDS011;66214;51.302;17.068;2024-02-14T00:57:01;55.00;;;23.80;;
77217;SDS011;66214;51.302;17.068;2024-02-14T00:59:31;44.60;;;21.20;;
77217;SDS011;66214;51.302;17.068;2024-02-14T01:01:59;43.60;;;21.20;;
77217;SDS011;66214;51.302;17.068;2024-02-14T01:04:28;44.90;;;20.70;;
77217;SDS011;66214;51.302;17.068;2024-02-14T01:06:58;43.20;;;21.00;;
77217;SDS011;66214;51.302;17.068;2024-02-14T01:09:27;61.90;;;26.80;;
77217;SDS011;66214;51.302;17.068;2024-02-14T01:11:56;73.30;;;30.00;;
77217;SDS011;66214;51.302;17.068;2024-02-14T01:14:25;87.50;;;34.80;;
77217;SDS011;66214;51.302;17.068;2024-02-14T01:16:53;79.60;;;33.00;;
77217;SDS011;66214;51.302;17.068;2024-02-14T01:19:22;69.30;;;31.40;;
77217;SDS011;66214;51.302;17.068;2024-02-14T01:21:51;58.50;;;26.30;;
77217;SDS011;66214;51.302;17.068;2024-02-14T01:24:19;53.20;;;24.10;;
77217;SDS011;66214;51.302;17.068;2024-02-14T01:26:48;53.50;;;24.80;;
77217;SDS011;66214;51.302;17.068;2024-02-14T01:29:18;48.80;;;22.00;;
77217;SDS011;66214;51.302;17.068;2024-02-14T01:31:48;56.40;;;23.80;;
77217;SDS011;66214;51.302;17.068;2024-02-14T01:34:19;50.40;;;22.40;;
77217;SDS011;66214;51.302;17.068;2024-02-14T01:36:47;52.90;;;22.90;;
77217;SDS011;66214;51.302;17.068;2024-02-14T01:39:15;62.20;;;28.50;;
77217;SDS011;66214;51.302;17.068;2024-02-14T01:41:46;69.90;;;28.50;;
77217;SDS011;66214;51.302;17.068;2024-02-14T01:44:18;72.30;;;33.00;;
77217;SDS011;66214;51.302;17.068;2024-02-14T01:46:46;63.00;;;29.40;;
77217;SDS011;66214;51.302;17.068;2024-02-14T01:49:15;55.70;;;27.80;;
77217;SDS011;66214;51.302;17.068;2024-02-14T01:51:45;53.10;;;23.70;;
77217;SDS011;66214;51.302;17.068;2024-02-14T01:54:15;43.40;;;19.90;;
77217;SDS011;66214;51.302;17.068;2024-02-14T01:56:45;41.50;;;19.70;;
77217;SDS011;66214;51.302;17.068;2024-02-14T01:59:13;41.90;;;20.30;;
77217;SDS011;66214;51.302;17.068;2024-02-14T02:01:44;41.40;;;20.50;;
77217;SDS011;66214;51.302;17.068;2024-02-14T02:07:38;45.40;;;20.70;;
77217;SDS011;66214;51.302;17.068;2024-02-14T02:10:10;54.60;;;24.70;;
77217;SDS011;66214;51.302;17.068;2024-02-14T02:12:41;55.10;;;27.00;;
77217;SDS011;66214;51.302;17.068;2024-02-14T02:15:09;55.40;;;25.70;;
77217;SDS011;66214;51.302;17.068;2024-02-14T02:17:42;52.90;;;24.50;;
77217;SDS011;66214;51.302;17.068;2024-02-14T02:20:11;40.20;;;21.40;;
77217;SDS011;66214;51.302;17.068;2024-02-14T02:22:45;42.40;;;20.30;;
77217;SDS011;66214;51.302;17.068;2024-02-14T02:25:15;38.10;;;19.10;;
77217;SDS011;66214;51.302;17.068;2024-02-14T02:27:43;41.80;;;20.00;;
77217;SDS011;66214;51.302;17.068;2024-02-14T02:30:11;35.50;;;18.60;;
77217;SDS011;66214;51.302;17.068;2024-02-14T02:36:17;52.10;;;22.40;;
77217;SDS011;66214;51.302;17.068;2024-02-14T02:38:45;59.70;;;26.10;;
77217;SDS011;66214;51.302;17.068;2024-02-14T02:44:46;49.40;;;22.50;;
77217;SDS011;66214;51.302;17.068;2024-02-14T02:47:15;38.50;;;19.30;;
77217;SDS011;66214;51.302;17.068;2024-02-14T02:49:45;36.00;;;17.50;;
77217;SDS011;66214;51.302;17.068;2024-02-14T02:52:13;37.00;;;16.50;;
77217;SDS011;66214;51.302;17.068;2024-02-14T02:54:42;37.00;;;16.90;;
77217;SDS011;66214;51.302;17.068;2024-02-14T02:57:11;33.70;;;16.80;;
77217;SDS011;66214;51.302;17.068;2024-02-14T02:59:39;34.00;;;16.10;;
77217;SDS011;66214;51.302;17.068;2024-02-14T03:02:13;37.10;;;18.10;;
77217;SDS011;66214;51.302;17.068;2024-02-14T03:04:41;47.80;;;21.20;;
77217;SDS011;66214;51.302;17.068;2024-02-14T03:07:09;48.40;;;21.70;;
77217;SDS011;66214;51.302;17.068;2024-02-14T03:09:37;46.60;;;20.60;;
77217;SDS011;66214;51.302;17.068;2024-02-14T03:12:05;41.00;;;18.50;;
77217;SDS011;66214;51.302;17.068;2024-02-14T03:14:34;35.80;;;18.40;;
77217;SDS011;66214;51.302;17.068;2024-02-14T03:17:04;32.40;;;15.40;;
77217;SDS011;66214;51.302;17.068;2024-02-14T03:19:39;35.90;;;16.80;;
77217;SDS011;66214;51.302;17.068;2024-02-14T03:22:08;33.60;;;15.80;;
77217;SDS011;66214;51.302;17.068;2024-02-14T03:24:36;34.20;;;16.90;;
77217;SDS011;66214;51.302;17.068;2024-02-14T03:27:05;45.90;;;18.30;;
77217;SDS011;66214;51.302;17.068;2024-02-14T03:29:34;58.70;;;22.90;;
77217;SDS011;66214;51.302;17.068;2024-02-14T03:32:03;53.40;;;24.00;;
77217;SDS011;66214;51.302;17.068;2024-02-14T03:34:32;51.20;;;24.20;;
77217;SDS011;66214;51.302;17.068;2024-02-14T03:37:03;53.40;;;25.40;;
77217;SDS011;66214;51.302;17.068;2024-02-14T03:39:34;44.70;;;21.50;;
77217;SDS011;66214;51.302;17.068;2024-02-14T03:42:04;45.00;;;21.20;;
77217;SDS011;66214;51.302;17.068;2024-02-14T03:44:35;47.10;;;20.70;;
77217;SDS011;66214;51.302;17.068;2024-02-14T03:47:04;42.00;;;20.60;;
77217;SDS011;66214;51.302;17.068;2024-02-14T03:49:33;48.20;;;22.20;;
77217;SDS011;66214;51.302;17.068;2024-02-14T03:52:02;48.30;;;22.60;;
77217;SDS011;66214;51.302;17.068;2024-02-14T03:54:37;54.20;;;25.70;;
77217;SDS011;66214;51.302;17.068;2024-02-14T03:57:05;71.40;;;33.40;;
77217;SDS011;66214;51.302;17.068;2024-02-14T03:59:36;80.70;;;33.70;;
77217;SDS011;66214;51.302;17.068;2024-02-14T05:03:48;47.80;;;23.30;;
77217;SDS011;66214;51.302;17.068;2024-02-14T05:06:19;49.80;;;24.20;;
77217;SDS011;66214;51.302;17.068;2024-02-14T05:08:48;53.20;;;25.20;;
77217;SDS011;66214;51.302;17.068;2024-02-14T05:11:17;50.40;;;24.10;;
77217;SDS011;66214;51.302;17.068;2024-02-14T05:13:46;61.40;;;28.40;;
77217;SDS011;66214;51.302;17.068;2024-02-14T05:16:18;78.00;;;34.30;;
77217;SDS011;66214;51.302;17.068;2024-02-14T05:18:51;83.00;;;36.20;;
77217;SDS011;66214;51.302;17.068;2024-02-14T05:21:20;71.70;;;34.50;;
77217;SDS011;66214;51.302;17.068;2024-02-14T05:23:50;61.10;;;29.50;;
77217;SDS011;66214;51.302;17.068;2024-02-14T05:26:18;51.70;;;25.00;;
77217;SDS011;66214;51.302;17.068;2024-02-14T05:28:46;53.00;;;25.30;;
77217;SDS011;66214;51.302;17.068;2024-02-14T05:31:14;55.50;;;27.70;;
77217;SDS011;66214;51.302;17.068;2024-02-14T05:33:43;54.60;;;24.00;;
77217;SDS011;66214;51.302;17.068;2024-02-14T05:36:11;65.10;;;29.70;;
77217;SDS011;66214;51.302;17.068;2024-02-14T05:38:39;75.00;;;35.10;;
77217;SDS011;66214;51.302;17.068;2024-02-14T05:41:07;75.80;;;34.50;;
77217;SDS011;66214;51.302;17.068;2024-02-14T05:43:35;75.60;;;34.70;;
77217;SDS011;66214;51.302;17.068;2024-02-14T05:46:04;75.00;;;33.60;;
77217;SDS011;66214;51.302;17.068;2024-02-14T05:48:32;67.50;;;31.60;;
77217;SDS011;66214;51.302;17.068;2024-02-14T05:51:00;56.40;;;26.90;;
77217;SDS011;66214;51.302;17.068;2024-02-14T05:53:29;55.00;;;22.90;;
77217;SDS011;66214;51.302;17.068;2024-02-14T05:55:57;49.20;;;24.00;;
77217;SDS011;66214;51.302;17.068;2024-02-14T05:58:25;51.80;;;23.70;;
77217;SDS011;66214;51.302;17.068;2024-02-14T06:00:57;52.00;;;23.70;;
77217;SDS011;66214;51.302;17.068;2024-02-14T06:03:26;49.80;;;22.00;;
77217;SDS011;66214;51.302;17.068;2024-02-14T06:05:55;55.00;;;23.80;;
77217;SDS011;66214;51.302;17.068;2024-02-14T06:08:24;61.00;;;26.20;;
77217;SDS011;66214;51.302;17.068;2024-02-14T06:10:52;67.10;;;28.60;;
77217;SDS011;66214;51.302;17.068;2024-02-14T06:13:20;52.70;;;22.80;;
77217;SDS011;66214;51.302;17.068;2024-02-14T06:15:48;59.20;;;24.00;;
77217;SDS011;66214;51.302;17.068;2024-02-14T06:18:19;48.90;;;22.10;;
77217;SDS011;66214;51.302;17.068;2024-02-14T06:20:48;47.40;;;20.70;;
77217;SDS011;66214;51.302;17.068;2024-02-14T06:23:17;34.20;;;16.80;;
77217;SDS011;66214;51.302;17.068;2024-02-14T06:25:46;39.40;;;18.60;;
77217;SDS011;66214;51.302;17.068;2024-02-14T06:28:15;34.10;;;16.80;;
77217;SDS011;66214;51.302;17.068;2024-02-14T06:30:43;38.50;;;18.20;;
77217;SDS011;66214;51.302;17.068;2024-02-14T06:33:12;44.00;;;19.60;;
77217;SDS011;66214;51.302;17.068;2024-02-14T06:35:41;48.50;;;20.90;;
77217;SDS011;66214;51.302;17.068;2024-02-14T06:38:09;48.50;;;22.00;;
77217;SDS011;66214;51.302;17.068;2024-02-14T06:40:38;50.40;;;22.00;;
77217;SDS011;66214;51.302;17.068;2024-02-14T06:43:06;43.80;;;21.10;;
77217;SDS011;66214;51.302;17.068;2024-02-14T06:45:34;38.10;;;18.20;;
77217;SDS011;66214;51.302;17.068;2024-02-14T06:48:03;35.50;;;16.90;;
77217;SDS011;66214;51.302;17.068;2024-02-14T06:50:32;33.80;;;16.40;;
77217;SDS011;66214;51.302;17.068;2024-02-14T06:56:19;29.00;;;14.80;;
77217;SDS011;66214;51.302;17.068;2024-02-14T06:58:48;37.50;;;16.30;;
77217;SDS011;66214;51.302;17.068;2024-02-14T07:01:21;35.20;;;16.40;;
77217;SDS011;66214;51.302;17.068;2024-02-14T07:03:53;41.40;;;19.10;;
77217;SDS011;66214;51.302;17.068;2024-02-14T07:06:22;26.50;;;12.20;;
77217;SDS011;66214;51.302;17.068;2024-02-14T07:08:50;40.40;;;19.00;;
77217;SDS011;66214;51.302;17.068;2024-02-14T07:11:19;29.00;;;12.90;;
77217;SDS011;66214;51.302;17.068;2024-02-14T07:13:48;38.30;;;17.00;;
77217;SDS011;66214;51.302;17.068;2024-02-14T07:16:17;28.90;;;13.70;;
77217;SDS011;66214;51.302;17.068;2024-02-14T07:18:45;33.50;;;14.80;;
77217;SDS011;66214;51.302;17.068;2024-02-14T07:21:16;32.30;;;16.20;;
77217;SDS011;66214;51.302;17.068;2024-02-14T07:23:48;39.00;;;17.00;;
77217;SDS011;66214;51.302;17.068;2024-02-14T07:26:17;36.60;;;17.60;;
77217;SDS011;66214;51.302;17.068;2024-02-14T07:28:45;40.00;;;19.30;;
77217;SDS011;66214;51.302;17.068;2024-02-14T07:31:15;35.30;;;16.20;;
77217;SDS011;66214;51.302;17.068;2024-02-14T07:33:45;35.80;;;17.20;;
77217;SDS011;66214;51.302;17.068;2024-02-14T07:36:21;37.50;;;15.70;;
77217;SDS011;66214;51.302;17.068;2024-02-14T07:38:50;33.30;;;15.60;;
77217;SDS011;66214;51.302;17.068;2024-02-14T07:41:19;28.50;;;13.00;;
77217;SDS011;66214;51.302;17.068;2024-02-14T07:43:47;32.20;;;14.60;;
77217;SDS011;66214;51.302;17.068;2024-02-14T07:46:18;25.80;;;12.30;;
77217;SDS011;66214;51.302;17.068;2024-02-14T07:48:47;41.50;;;16.90;;
77217;SDS011;66214;51.302;17.068;2024-02-14T07:51:19;36.30;;;17.40;;
77217;SDS011;66214;51.302;17.068;2024-02-14T07:53:49;31.30;;;14.70;;
77217;SDS011;66214;51.302;17.068;2024-02-14T07:56:18;35.30;;;16.10;;
77217;SDS011;66214;51.302;17.068;2024-02-14T07:58:46;27.70;;;14.40;;
77217;SDS011;66214;51.302;17.068;2024-02-14T08:03:50;30.70;;;15.00;;
77217;SDS011;66214;51.302;17.068;2024-02-14T08:06:19;23.60;;;10.70;;
77217;SDS011;66214;51.302;17.068;2024-02-14T08:08:49;28.10;;;14.80;;
77217;SDS011;66214;51.302;17.068;2024-02-14T08:11:22;27.70;;;11.90;;
77217;SDS011;66214;51.302;17.068;2024-02-14T08:13:51;26.90;;;14.30;;
77217;SDS011;66214;51.302;17.068;2024-02-14T08:16:19;30.20;;;13.80;;
77217;SDS011;66214;51.302;17.068;2024-02-14T08:18:48;28.30;;;13.40;;
77217;SDS011;66214;51.302;17.068;2024-02-14T08:21:18;25.50;;;12.50;;
77217;SDS011;66214;51.302;17.068;2024-02-14T08:27:15;30.20;;;14.60;;
77217;SDS011;66214;51.302;17.068;2024-02-14T08:29:44;36.50;;;17.30;;
77217;SDS011;66214;51.302;17.068;2024-02-14T08:32:13;31.40;;;15.70;;
77217;SDS011;66214;51.302;17.068;2024-02-14T08:34:41;32.50;;;15.00;;
77217;SDS011;66214;51.302;17.068;2024-02-14T08:37:10;33.20;;;15.90;;
77217;SDS011;66214;51.302;17.068;2024-02-14T08:39:39;34.80;;;15.80;;
77217;SDS011;66214;51.302;17.068;2024-02-14T08:42:08;36.30;;;16.80;;
77217;SDS011;66214;51.302;17.068;2024-02-14T08:44:38;28.30;;;14.90;;
77217;SDS011;66214;51.302;17.068;2024-02-14T08:47:12;34.60;;;17.30;;
77217;SDS011;66214;51.302;17.068;2024-02-14T08:49:41;28.50;;;13.10;;
77217;SDS011;66214;51.302;17.068;2024-02-14T08:52:10;27.20;;;12.70;;
77217;SDS011;66214;51.302;17.068;2024-02-14T08:54:39;33.40;;;15.70;;
77217;SDS011;66214;51.302;17.068;2024-02-14T08:57:08;29.70;;;15.20;;
77217;SDS011;66214;51.302;17.068;2024-02-14T08:59:36;32.20;;;15.70;;
77217;SDS011;66214;51.302;17.068;2024-02-14T09:02:05;36.10;;;17.20;;
77217;SDS011;66214;51.302;17.068;2024-02-14T09:04:33;31.40;;;15.70;;
77217;SDS011;66214;51.302;17.068;2024-02-14T09:07:01;34.80;;;16.80;;
77217;SDS011;66214;51.302;17.068;2024-02-14T09:12:51;30.60;;;15.70;;
77217;SDS011;66214;51.302;17.068;2024-02-14T09:15:19;32.10;;;15.50;;
77217;SDS011;66214;51.302;17.068;2024-02-14T09:17:50;30.70;;;14.80;;
77217;SDS011;66214;51.302;17.068;2024-02-14T09:20:20;32.50;;;15.00;;
77217;SDS011;66214;51.302;17.068;2024-02-14T09:22:48;31.40;;;15.30;;
77217;SDS011;66214;51.302;17.068;2024-02-14T09:25:17;27.40;;;14.70;;
77217;SDS011;66214;51.302;17.068;2024-02-14T09:27:53;27.30;;;12.20;;
77217;SDS011;66214;51.302;17.068;2024-02-14T09:30:22;30.50;;;14.50;;
77217;SDS011;66214;51.302;17.068;2024-02-14T09:32:50;23.50;;;11.70;;
77217;SDS011;66214;51.302;17.068;2024-02-14T09:35:19;26.40;;;12.20;;
77217;SDS011;66214;51.302;17.068;2024-02-14T09:37:47;25.60;;;13.00;;
77217;SDS011;66214;51.302;17.068;2024-02-14T09:40:16;24.50;;;11.60;;
77217;SDS011;66214;51.302;17.068;2024-02-14T09:42:58;15.30;;;6.30;;
77217;SDS011;66214;51.302;17.068;2024-02-14T09:45:32;17.60;;;6.90;;
77217;SDS011;66214;51.302;17.068;2024-02-14T09:48:02;16.00;;;6.50;;
77217;SDS011;66214;51.302;17.068;2024-02-14T09:50:32;19.10;;;9.30;;
77217;SDS011;66214;51.302;17.068;2024-02-14T09:53:02;18.20;;;9.30;;
77217;SDS011;66214;51.302;17.068;2024-02-14T09:55:33;23.60;;;11.30;;
77217;SDS011;66214;51.302;17.068;2024-02-14T09:58:02;20.40;;;9.00;;
77217;SDS011;66214;51.302;17.068;2024-02-14T10:00:35;23.30;;;11.10;;
77217;SDS011;66214;51.302;17.068;2024-02-14T10:03:04;22.90;;;10.90;;
77217;SDS011;66214;51.302;17.068;2024-02-14T10:05:36;24.70;;;10.10;;
77217;SDS011;66214;51.302;17.068;2024-02-14T10:11:35;20.90;;;11.10;;
77217;SDS011;66214;51.302;17.068;2024-02-14T10:14:05;22.80;;;10.60;;
77217;SDS011;66214;51.302;17.068;2024-02-14T10:16:39;23.00;;;12.00;;
77217;SDS011;66214;51.302;17.068;2024-02-14T10:19:20;27.70;;;12.10;;
77217;SDS011;66214;51.302;17.068;2024-02-14T10:22:01;21.20;;;10.70;;
77217;SDS011;66214;51.302;17.068;2024-02-14T10:24:33;20.40;;;10.60;;
77217;SDS011;66214;51.302;17.068;2024-02-14T10:27:07;24.50;;;11.30;;
77217;SDS011;66214;51.302;17.068;2024-02-14T10:29:37;21.10;;;11.10;;
77217;SDS011;66214;51.302;17.068;2024-02-14T10:32:07;21.80;;;10.70;;
77217;SDS011;66214;51.302;17.068;2024-02-14T10:34:38;23.20;;;10.60;;
77217;SDS011;66214;51.302;17.068;2024-02-14T10:37:09;21.60;;;10.70;;
77217;SDS011;66214;51.302;17.068;2024-02-14T10:39:39;21.00;;;10.70;;
77217;SDS011;66214;51.302;17.068;2024-02-14T10:42:10;20.60;;;10.40;;
77217;SDS011;66214;51.302;17.068;2024-02-14T10:44:38;19.20;;;10.20;;
77217;SDS011;66214;51.302;17.068;2024-02-14T10:47:10;18.20;;;9.10;;
77217;SDS011;66214;51.302;17.068;2024-02-14T10:49:43;18.10;;;9.70;;
77217;SDS011;66214;51.302;17.068;2024-02-14T10:52:15;18.10;;;9.00;;
77217;SDS011;66214;51.302;17.068;2024-02-14T10:54:52;17.40;;;9.70;;
77217;SDS011;66214;51.302;17.068;2024-02-14T10:57:25;17.10;;;9.40;;
77217;SDS011;66214;51.302;17.068;2024-02-14T10:59:53;18.30;;;9.70;;
77217;SDS011;66214;51.302;17.068;2024-02-14T11:03:49;15.90;;;9.40;;
77217;SDS011;66214;51.302;17.068;2024-02-14T11:06:18;17.60;;;9.70;;
77217;SDS011;66214;51.302;17.068;2024-02-14T11:08:58;18.90;;;10.00;;
77217;SDS011;66214;51.302;17.068;2024-02-14T11:11:29;18.20;;;9.50;;
77217;SDS011;66214;51.302;17.068;2024-02-14T11:14:01;17.00;;;8.50;;
77217;SDS011;66214;51.302;17.068;2024-02-14T11:16:32;16.60;;;9.10;;
77217;SDS011;66214;51.302;17.068;2024-02-14T11:19:12;17.70;;;9.50;;
77217;SDS011;66214;51.302;17.068;2024-02-14T11:21:47;15.40;;;8.90;;
77217;SDS011;66214;51.302;17.068;2024-02-14T11:24:17;15.00;;;7.70;;
77217;SDS011;66214;51.302;17.068;2024-02-14T11:26:47;14.70;;;7.10;;
77217;SDS011;66214;51.302;17.068;2024-02-14T11:29:19;17.80;;;8.10;;
77217;SDS011;66214;51.302;17.068;2024-02-14T11:31:48;14.30;;;7.20;;
77217;SDS011;66214;51.302;17.068;2024-02-14T11:34:18;14.90;;;7.50;;
77217;SDS011;66214;51.302;17.068;2024-02-14T11:40:00;14.20;;;7.50;;
77217;SDS011;66214;51.302;17.068;2024-02-14T11:42:29;14.10;;;7.10;;
77217;SDS011;66214;51.302;17.068;2024-02-14T11:44:59;12.00;;;6.60;;
77217;SDS011;66214;51.302;17.068;2024-02-14T11:47:27;12.40;;;6.40;;
77217;SDS011;66214;51.302;17.068;2024-02-14T11:49:56;13.30;;;6.30;;
77217;SDS011;66214;51.302;17.068;2024-02-14T11:52:26;9.60;;;4.30;;
77217;SDS011;66214;51.302;17.068;2024-02-14T11:54:55;10.00;;;5.90;;
77217;SDS011;66214;51.302;17.068;2024-02-14T11:57:26;10.10;;;5.20;;
77217;SDS011;66214;51.302;17.068;2024-02-14T11:59:55;12.80;;;6.30;;
77217;SDS011;66214;51.302;17.068;2024-02-14T12:02:26;10.50;;;4.90;;
77217;SDS011;66214;51.302;17.068;2024-02-14T12:04:54;13.30;;;5.40;;
77217;SDS011;66214;51.302;17.068;2024-02-14T12:07:23;13.10;;;5.60;;
77217;SDS011;66214;51.302;17.068;2024-02-14T12:09:55;35.80;;;22.30;;
77217;SDS011;66214;51.302;17.068;2024-02-14T12:12:24;11.70;;;5.60;;
77217;SDS011;66214;51.302;17.068;2024-02-14T12:14:53;11.70;;;5.30;;
77217;SDS011;66214;51.302;17.068;2024-02-14T12:17:21;12.50;;;6.10;;
77217;SDS011;66214;51.302;17.068;2024-02-14T12:19:52;12.00;;;6.10;;
77217;SDS011;66214;51.302;17.068;2024-02-14T12:22:21;10.30;;;5.20;;
77217;SDS011;66214;51.302;17.068;2024-02-14T12:24:49;13.00;;;5.80;;
77217;SDS011;66214;51.302;17.068;2024-02-14T12:27:17;11.30;;;5.20;;
77217;SDS011;66214;51.302;17.068;2024-02-14T12:29:46;12.20;;;5.90;;
77217;SDS011;66214;51.302;17.068;2024-02-14T12:32:16;10.90;;;5.30;;
77217;SDS011;66214;51.302;17.068;2024-02-14T12:34:46;9.40;;;4.70;;
77217;SDS011;66214;51.302;17.068;2024-02-14T12:37:14;10.60;;;4.80;;
77217;SDS011;66214;51.302;17.068;2024-02-14T12:39:43;9.20;;;4.30;;
77217;SDS011;66214;51.302;17.068;2024-02-14T12:42:12;11.00;;;5.20;;
77217;SDS011;66214;51.302;17.068;2024-02-14T12:44:40;9.40;;;5.00;;
77217;SDS011;66214;51.302;17.068;2024-02-14T12:47:08;12.20;;;5.10;;
77217;SDS011;66214;51.302;17.068;2024-02-14T12:49:37;10.10;;;4.30;;
77217;SDS011;66214;51.302;17.068;2024-02-14T12:52:05;9.90;;;4.60;;
77217;SDS011;66214;51.302;17.068;2024-02-14T12:54:34;11.30;;;5.10;;
77217;SDS011;66214;51.302;17.068;2024-02-14T12:57:04;10.60;;;4.90;;
77217;SDS011;66214;51.302;17.068;2024-02-14T12:59:34;10.10;;;4.50;;
77217;SDS011;66214;51.302;17.068;2024-02-14T13:02:03;11.40;;;4.90;;
77217;SDS011;66214;51.302;17.068;2024-02-14T13:04:34;10.90;;;5.00;;
77217;SDS011;66214;51.302;17.068;2024-02-14T13:07:03;9.60;;;4.30;;
77217;SDS011;66214;51.302;17.068;2024-02-14T13:09:31;9.00;;;4.60;;
77217;SDS011;66214;51.302;17.068;2024-02-14T13:12:01;9.40;;;4.60;;
77217;SDS011;66214;51.302;17.068;2024-02-14T13:14:31;12.20;;;4.90;;
77217;SDS011;66214;51.302;17.068;2024-02-14T13:17:01;9.70;;;4.20;;
77217;SDS011;66214;51.302;17.068;2024-02-14T13:19:35;9.90;;;4.00;;
77217;SDS011;66214;51.302;17.068;2024-02-14T13:22:04;12.80;;;4.80;;
77217;SDS011;66214;51.302;17.068;2024-02-14T13:24:35;8.70;;;4.00;;
77217;SDS011;66214;51.302;17.068;2024-02-14T13:27:07;9.00;;;4.30;;
77217;SDS011;66214;51.302;17.068;2024-02-14T13:29:36;9.50;;;4.20;;
77217;SDS011;66214;51.302;17.068;2024-02-14T13:32:05;8.20;;;3.70;;
77217;SDS011;66214;51.302;17.068;2024-02-14T13:34:35;9.20;;;3.90;;
77217;SDS011;66214;51.302;17.068;2024-02-14T13:37:04;7.60;;;3.30;;
77217;SDS011;66214;51.302;17.068;2024-02-14T13:39:34;8.50;;;3.60;;
77217;SDS011;66214;51.302;17.068;2024-02-14T13:42:04;8.70;;;3.90;;
77217;SDS011;66214;51.302;17.068;2024-02-14T13:44:34;10.30;;;3.30;;
77217;SDS011;66214;51.302;17.068;2024-02-14T13:47:03;8.50;;;3.60;;
77217;SDS011;66214;51.302;17.068;2024-02-14T13:49:37;8.40;;;3.50;;
77217;SDS011;66214;51.302;17.068;2024-02-14T13:52:31;10.20;;;3.60;;
77217;SDS011;66214;51.302;17.068;2024-02-14T13:55:03;8.30;;;3.50;;
77217;SDS011;66214;51.302;17.068;2024-02-14T13:57:38;8.50;;;3.20;;
77217;SDS011;66214;51.302;17.068;2024-02-14T14:00:08;9.40;;;3.00;;
77217;SDS011;66214;51.302;17.068;2024-02-14T14:03:51;8.50;;;3.10;;
77217;SDS011;66214;51.302;17.068;2024-02-14T14:06:22;9.80;;;3.80;;
77217;SDS011;66214;51.302;17.068;2024-02-14T14:08:52;8.20;;;3.70;;
77217;SDS011;66214;51.302;17.068;2024-02-14T14:11:21;10.30;;;4.00;;
77217;SDS011;66214;51.302;17.068;2024-02-14T14:13:51;8.10;;;3.80;;
77217;SDS011;66214;51.302;17.068;2024-02-14T14:16:20;10.00;;;3.40;;
77217;SDS011;66214;51.302;17.068;2024-02-14T14:18:51;9.20;;;3.30;;
77217;SDS011;66214;51.302;17.068;2024-02-14T14:21:20;9.50;;;3.00;;
77217;SDS011;66214;51.302;17.068;2024-02-14T14:23:49;7.80;;;3.50;;
77217;SDS011;66214;51.302;17.068;2024-02-14T14:26:18;8.40;;;3.20;;
77217;SDS011;66214;51.302;17.068;2024-02-14T14:28:48;8.10;;;2.80;;
77217;SDS011;66214;51.302;17.068;2024-02-14T14:31:22;7.80;;;2.60;;
77217;SDS011;66214;51.302;17.068;2024-02-14T14:33:51;6.90;;;2.90;;
77217;SDS011;66214;51.302;17.068;2024-02-14T14:36:20;8.80;;;2.60;;
77217;SDS011;66214;51.302;17.068;2024-02-14T14:38:48;7.40;;;2.70;;
77217;SDS011;66214;51.302;17.068;2024-02-14T14:41:18;7.00;;;2.90;;
77217;SDS011;66214;51.302;17.068;2024-02-14T14:43:47;8.30;;;3.20;;
77217;SDS011;66214;51.302;17.068;2024-02-14T14:46:17;7.70;;;2.80;;
77217;SDS011;66214;51.302;17.068;2024-02-14T14:48:46;9.70;;;3.20;;
77217;SDS011;66214;51.302;17.068;2024-02-14T14:51:15;7.30;;;2.80;;
77217;SDS011;66214;51.302;17.068;2024-02-14T14:53:45;9.50;;;3.80;;
77217;SDS011;66214;51.302;17.068;2024-02-14T14:56:14;7.10;;;2.60;;
77217;SDS011;66214;51.302;17.068;2024-02-14T14:58:42;6.10;;;2.20;;
77217;SDS011;66214;51.302;17.068;2024-02-14T15:01:12;7.20;;;2.90;;
77217;SDS011;66214;51.302;17.068;2024-02-14T15:03:41;6.90;;;2.60;;
77217;SDS011;66214;51.302;17.068;2024-02-14T15:06:10;7.30;;;3.00;;
77217;SDS011;66214;51.302;17.068;2024-02-14T15:14:00;6.90;;;2.80;;
77217;SDS011;66214;51.302;17.068;2024-02-14T15:16:34;7.20;;;2.60;;
77217;SDS011;66214;51.302;17.068;2024-02-14T15:19:21;6.60;;;2.60;;
77217;SDS011;66214;51.302;17.068;2024-02-14T15:21:52;9.80;;;2.90;;
77217;SDS011;66214;51.302;17.068;2024-02-14T15:24:20;8.70;;;3.40;;
77217;SDS011;66214;51.302;17.068;2024-02-14T15:30:12;10.20;;;3.10;;
77217;SDS011;66214;51.302;17.068;2024-02-14T15:33:03;8.90;;;3.40;;
77217;SDS011;66214;51.302;17.068;2024-02-14T15:35:57;8.60;;;3.50;;
77217;SDS011;66214;51.302;17.068;2024-02-14T15:38:26;7.40;;;3.10;;
77217;SDS011;66214;51.302;17.068;2024-02-14T15:40:57;9.70;;;3.70;;
77217;SDS011;66214;51.302;17.068;2024-02-14T15:43:28;10.10;;;3.90;;
77217;SDS011;66214;51.302;17.068;2024-02-14T15:45:58;10.90;;;3.90;;
77217;SDS011;66214;51.302;17.068;2024-02-14T15:48:26;8.80;;;3.90;;
77217;SDS011;66214;51.302;17.068;2024-02-14T15:51:00;12.00;;;4.20;;
77217;SDS011;66214;51.302;17.068;2024-02-14T15:53:29;13.00;;;4.00;;
77217;SDS011;66214;51.302;17.068;2024-02-14T15:56:02;12.10;;;4.60;;
77217;SDS011;66214;51.302;17.068;2024-02-14T15:58:31;12.50;;;4.90;;
77217;SDS011;66214;51.302;17.068;2024-02-14T16:01:00;10.20;;;4.60;;
77217;SDS011;66214;51.302;17.068;2024-02-14T16:03:29;13.40;;;5.90;;
77217;SDS011;66214;51.302;17.068;2024-02-14T16:05:58;13.90;;;5.20;;
77217;SDS011;66214;51.302;17.068;2024-02-14T16:08:29;12.40;;;4.90;;
77217;SDS011;66214;51.302;17.068;2024-02-14T16:10:59;53.30;;;16.50;;
77217;SDS011;66214;51.302;17.068;2024-02-14T16:13:28;249.30;;;63.90;;
77217;SDS011;66214;51.302;17.068;2024-02-14T16:15:59;70.90;;;21.40;;